Time;durP1;ratioP1;P1;durP2;ratioP2;P2;SDS_P1;SDS_P2;PMS_P1;PMS_P2;Temp;Humidity;BMP_temperature;BMP_pressure;BME280_temperature;BME280_humidity;BME280_pressure;Samples;Min_cycle;Max_cycle;Signal;HPM_P1;HPM_P2
2023/10/16 00:00:29;;;;;;;4.67;1.40;;;7.10;99.90;;;;;;4939949;29;20138;-81
2023/10/16 00:03:00;;;;;;;5.27;1.50;;;7.10;99.90;;;;;;4961738;28;20106;-81
2023/10/16 00:05:31;;;;;;;4.53;1.27;;;7.20;99.90;;;;;;4959524;28;20039;-81
2023/10/16 00:08:05;;;;;;;3.00;1.50;;;7.20;99.90;;;;;;4978223;28;20418;-81
2023/10/16 00:10:31;;;;;;;4.33;1.40;;;7.20;99.90;;;;;;4976979;28;20050;-81
2023/10/16 00:13:03;;;;;;;2.50;1.20;;;7.20;99.90;;;;;;4977457;28;20046;-81
2023/10/16 00:15:30;;;;;;;;;;;7.20;99.90;;;;;;4977900;28;20082;-81
2023/10/16 00:17:57;;;;;;;5.97;1.50;;;7.10;99.90;;;;;;4977750;28;20477;-81
2023/10/16 00:20:25;;;;;;;4.03;1.47;;;7.10;99.90;;;;;;4961617;28;20414;-81
2023/10/16 00:22:50;;;;;;;3.93;1.40;;;7.10;99.90;;;;;;4979280;28;20126;-81
2023/10/16 00:25:18;;;;;;;4.07;1.03;;;7.10;99.90;;;;;;4972494;28;20840;-81
2023/10/16 00:27:44;;;;;;;3.63;1.10;;;7.10;99.90;;;;;;4961555;28;20100;-81
2023/10/16 00:30:10;;;;;;;5.07;1.57;;;7.10;99.90;;;;;;4979247;28;20402;-81
2023/10/16 00:32:37;;;;;;;7.23;1.57;;;7.20;99.90;;;;;;4961680;28;20070;-81
2023/10/16 00:35:08;;;;;;;5.30;1.30;;;7.20;99.90;;;;;;4958435;28;20061;-81
2023/10/16 00:37:34;;;;;;;3.60;1.30;;;7.20;99.90;;;;;;4972667;28;20050;-81
2023/10/16 00:40:07;;;;;;;4.40;1.27;;;7.30;99.90;;;;;;4974931;28;20479;-81
2023/10/16 00:42:36;;;;;;;2.47;1.40;;;7.20;99.90;;;;;;4972071;28;20057;-80
2023/10/16 00:45:03;;;;;;;4.17;1.73;;;7.30;99.90;;;;;;4960998;28;20047;-80
2023/10/16 00:47:29;;;;;;;6.50;1.27;;;7.30;99.90;;;;;;4960184;28;20493;-80
2023/10/16 00:49:59;;;;;;;3.40;1.20;;;7.30;99.90;;;;;;4957351;28;20118;-80
2023/10/16 00:52:25;;;;;;;5.13;1.30;;;7.30;99.90;;;;;;4957882;28;20498;-80
2023/10/16 00:54:53;;;;;;;2.63;1.10;;;7.40;99.90;;;;;;4941457;28;20062;-80
2023/10/16 00:57:27;;;;;;;3.27;1.20;;;7.40;99.90;;;;;;4973746;28;20462;-81
2023/10/16 00:59:53;;;;;;;4.07;1.20;;;7.40;99.90;;;;;;4942523;28;20034;-80
2023/10/16 01:02:26;;;;;;;5.13;1.43;;;7.40;99.90;;;;;;4954507;28;20039;-80
2023/10/16 01:04:52;;;;;;;6.13;1.60;;;7.40;99.90;;;;;;4952253;28;20149;-80
2023/10/16 01:07:19;;;;;;;3.70;1.30;;;7.40;99.90;;;;;;4955109;28;20043;-80
2023/10/16 01:09:50;;;;;;;3.10;1.10;;;7.40;99.90;;;;;;4957652;28;20501;-80
2023/10/16 01:12:15;;;;;;;3.27;1.40;;;7.40;99.90;;;;;;4967325;28;20050;-80
2023/10/16 01:14:42;;;;;;;3.27;1.20;;;7.40;99.90;;;;;;4956897;28;20176;-81
2023/10/16 01:17:11;;;;;;;2.73;1.27;;;7.40;99.90;;;;;;4939768;28;20414;-80
2023/10/16 01:19:37;;;;;;;3.73;1.20;;;7.40;99.90;;;;;;4954669;28;20042;-80
2023/10/16 01:22:03;;;;;;;5.93;1.30;;;7.40;99.90;;;;;;4955972;28;20036;-80
2023/10/16 01:24:32;;;;;;;3.30;1.50;;;7.40;99.90;;;;;;4953610;28;20471;-81
2023/10/16 01:27:12;;;;;;;4.27;1.53;;;7.40;99.90;;;;;;4955059;28;20043;-80
2023/10/16 01:29:38;;;;;;;3.43;1.10;;;7.40;99.90;;;;;;4940204;29;20126;-80
2023/10/16 01:32:04;;;;;;;5.00;1.33;;;7.40;99.90;;;;;;4985196;28;20126;-80
2023/10/16 01:34:32;;;;;;;6.97;1.60;;;7.30;99.90;;;;;;4933172;29;20043;-80
2023/10/16 01:37:04;;;;;;;3.87;1.60;;;7.30;99.90;;;;;;4964967;28;20090;-80
2023/10/16 01:39:48;;;;;;;3.30;1.20;;;7.30;99.90;;;;;;4956010;28;20041;-81
2023/10/16 01:42:15;;;;;;;5.30;1.37;;;7.30;99.90;;;;;;4956601;28;20058;-80
2023/10/16 01:44:43;;;;;;;5.63;1.10;;;7.30;99.90;;;;;;4952806;28;20304;-81
2023/10/16 01:47:13;;;;;;;3.37;1.30;;;7.30;99.90;;;;;;4954206;28;20079;-80
2023/10/16 01:49:40;;;;;;;1.83;1.10;;;7.30;99.90;;;;;;4987873;28;20042;-80
2023/10/16 01:52:10;;;;;;;3.33;1.30;;;7.30;99.90;;;;;;4954410;28;20035;-81
2023/10/16 01:54:40;;;;;;;3.80;1.37;;;7.30;99.90;;;;;;4925662;28;20050;-81
2023/10/16 01:57:16;;;;;;;4.27;1.00;;;7.30;99.90;;;;;;4939394;28;20506;-80
2023/10/16 01:59:43;;;;;;;4.37;1.50;;;7.30;99.90;;;;;;4954968;28;20039;-80
2023/10/16 02:02:11;;;;;;;4.23;1.10;;;7.30;99.90;;;;;;4953319;28;20049;-81
2023/10/16 02:04:38;;;;;;;2.73;1.30;;;7.30;99.90;;;;;;4956208;28;20046;-81
2023/10/16 02:07:06;;;;;;;4.47;1.17;;;7.40;99.90;;;;;;4972706;28;20055;-80
2023/10/16 02:09:36;;;;;;;4.87;1.27;;;7.40;99.90;;;;;;4947737;28;20047;-81
2023/10/16 02:12:10;;;;;;;2.50;1.00;;;7.40;99.90;;;;;;4966985;28;20118;-81
2023/10/16 02:14:40;;;;;;;4.63;1.13;;;7.40;99.90;;;;;;4953505;28;20522;-81
2023/10/16 02:17:14;;;;;;;4.50;1.20;;;7.40;99.90;;;;;;4956032;28;20066;-81
2023/10/16 02:19:43;;;;;;;4.23;1.10;;;7.50;99.90;;;;;;4948113;28;20039;-80
2023/10/16 02:22:11;;;;;;;3.10;1.10;;;7.50;99.90;;;;;;4956054;28;20031;-81
2023/10/16 02:24:37;;;;;;;3.57;1.10;;;7.50;99.90;;;;;;4953358;28;20105;-81
2023/10/16 02:27:12;;;;;;;2.77;1.07;;;7.50;99.90;;;;;;4958429;28;20046;-81
2023/10/16 02:29:49;;;;;;;3.93;1.30;;;7.50;99.90;;;;;;4949697;28;20097;-81
2023/10/16 02:32:15;;;;;;;2.13;1.00;;;7.50;99.90;;;;;;4972445;28;20170;-80
2023/10/16 02:34:41;;;;;;;4.17;1.20;;;7.50;99.90;;;;;;4955661;28;20486;-81
2023/10/16 02:37:11;;;;;;;5.83;1.30;;;7.50;99.90;;;;;;4952136;28;20572;-81
2023/10/16 02:39:37;;;;;;;4.47;1.10;;;7.40;99.90;;;;;;4965735;28;20499;-81
2023/10/16 02:42:12;;;;;;;3.40;0.97;;;7.40;99.90;;;;;;4955479;28;20483;-81
2023/10/16 02:44:45;;;;;;;4.20;1.10;;;7.40;99.90;;;;;;4940828;28;20051;-81
2023/10/16 02:47:17;;;;;;;4.37;1.30;;;7.40;99.90;;;;;;4956582;28;20513;-80
2023/10/16 02:49:47;;;;;;;1.77;1.00;;;7.40;99.90;;;;;;4954989;28;20042;-80
2023/10/16 02:52:17;;;;;;;6.30;1.23;;;7.40;99.90;;;;;;4962575;28;20056;-81
2023/10/16 02:54:45;;;;;;;1.47;0.87;;;7.40;99.90;;;;;;4939733;28;20173;-80
2023/10/16 02:57:11;;;;;;;2.37;0.90;;;7.40;99.90;;;;;;4955508;28;20042;-80
2023/10/16 02:59:43;;;;;;;5.27;1.10;;;7.40;99.90;;;;;;4971797;28;20042;-80
2023/10/16 03:02:17;;;;;;;2.50;0.90;;;7.40;99.90;;;;;;4969959;28;20039;-80
2023/10/16 03:04:48;;;;;;;4.00;1.00;;;7.40;99.90;;;;;;4951350;28;20039;-80
2023/10/16 03:07:14;;;;;;;2.30;1.17;;;7.40;99.90;;;;;;4936687;28;20122;-80
2023/10/16 03:09:43;;;;;;;2.67;1.10;;;7.40;99.90;;;;;;4936357;28;20127;-80
2023/10/16 03:12:09;;;;;;;1.83;1.10;;;7.50;99.90;;;;;;4970569;28;20093;-80
2023/10/16 03:14:45;;;;;;;3.23;1.10;;;7.50;99.90;;;;;;4965627;28;20051;-80
2023/10/16 03:17:34;;;;;;;3.07;1.10;;;7.50;99.90;;;;;;4977190;28;20031;-80
2023/10/16 03:20:06;;;;;;;3.43;1.40;;;7.50;99.90;;;;;;4972011;28;20050;-80
2023/10/16 03:22:32;;;;;;;;;;;7.50;99.90;;;;;;4967311;28;20118;-80
2023/10/16 03:24:59;;;;;;;1.80;1.30;;;7.50;99.90;;;;;;4950092;28;19925;-80
2023/10/16 03:27:31;;;;;;;4.40;1.50;;;7.50;99.90;;;;;;4964978;28;20495;-80
2023/10/16 03:29:58;;;;;;;5.60;1.67;;;7.50;99.90;;;;;;4955597;28;20050;-80
2023/10/16 03:32:24;;;;;;;4.10;1.87;;;7.50;99.90;;;;;;4967626;28;20045;-81
2023/10/16 03:34:53;;;;;;;3.63;2.10;;;7.50;99.90;;;;;;4973088;28;20043;-80
2023/10/16 03:37:19;;;;;;;4.23;2.07;;;7.40;99.90;;;;;;4965591;28;20535;-81
2023/10/16 03:39:46;;;;;;;9.53;2.40;;;7.50;99.90;;;;;;4954684;28;20038;-81
2023/10/16 03:42:17;;;;;;;4.30;2.50;;;7.40;99.90;;;;;;4971988;28;20057;-80
2023/10/16 03:44:43;;;;;;;6.03;2.73;;;7.40;99.90;;;;;;4965808;28;20038;-80
2023/10/16 03:47:10;;;;;;;4.33;2.40;;;7.40;99.90;;;;;;4951406;28;20125;-80
2023/10/16 03:49:36;;;;;;;4.57;2.73;;;7.40;99.90;;;;;;4952419;28;20078;-80
2023/10/16 03:52:02;;;;;;;5.17;2.80;;;7.50;99.90;;;;;;4955066;28;20066;-80
2023/10/16 03:54:31;;;;;;;4.93;2.60;;;7.50;99.90;;;;;;4954506;28;20047;-80
2023/10/16 03:57:00;;;;;;;5.57;2.60;;;7.50;99.90;;;;;;4955062;28;20069;-81
2023/10/16 03:59:29;;;;;;;5.53;3.10;;;7.50;99.90;;;;;;4939614;28;20054;-80
2023/10/16 04:02:03;;;;;;;5.90;2.97;;;7.50;99.90;;;;;;4955316;28;20038;-82
2023/10/16 04:04:29;;;;;;;5.40;2.90;;;7.60;99.90;;;;;;4966130;28;20387;-80
2023/10/16 04:06:58;;;;;;;7.20;2.80;;;7.60;99.90;;;;;;4946514;28;20122;-80
2023/10/16 04:09:30;;;;;;;6.70;2.50;;;7.60;99.90;;;;;;4970747;28;20461;-80
2023/10/16 04:11:56;;;;;;;;;;;7.60;99.90;;;;;;4968325;28;20077;-80
2023/10/16 04:14:45;;;;;;;4.77;2.73;;;7.60;99.90;;;;;;4938349;28;19926;-80
2023/10/16 04:17:11;;;;;;;3.63;2.40;;;7.60;99.90;;;;;;4966731;28;20053;-80
2023/10/16 04:19:52;;;;;;;6.97;2.90;;;7.70;99.90;;;;;;4932635;28;20035;-80
2023/10/16 04:22:19;;;;;;;5.38;3.03;;;7.70;99.90;;;;;;4954530;28;20058;-80
2023/10/16 04:24:45;;;;;;;4.43;2.70;;;7.70;99.90;;;;;;4953660;28;20053;-80
2023/10/16 04:29:46;;;;;;;8.75;3.10;;;7.70;99.90;;;;;;4969753;28;20126;-80
2023/10/16 04:37:49;;;;;;;5.00;2.67;;;7.70;99.90;;;;;;4949932;28;20050;-80
2023/10/16 04:43:07;;;;;;;3.90;2.80;;;7.70;99.90;;;;;;4963961;28;20046;-80
2023/10/16 04:45:39;;;;;;;4.03;2.78;;;7.70;99.90;;;;;;4944593;28;20054;-80
2023/10/16 04:58:27;;;;;;;3.70;2.90;;;7.60;99.90;;;;;;4959298;28;20054;-80
2023/10/16 05:06:38;;;;;;;7.13;3.33;;;7.70;99.90;;;;;;4965275;28;20051;-81
2023/10/16 05:17:59;;;;;;;6.27;3.00;;;7.60;99.90;;;;;;4956998;28;20301;-80
2023/10/16 06:15:07;;;;;;;14.07;4.73;;;7.50;99.90;;;;;;4967550;28;20069;-80
2023/10/16 06:17:37;;;;;;;5.60;3.47;;;7.60;99.90;;;;;;4957197;28;20118;-80
2023/10/16 06:20:04;;;;;;;7.50;3.20;;;7.50;99.90;;;;;;4956198;28;20121;-80
2023/10/16 06:22:30;;;;;;;6.53;3.43;;;7.50;99.90;;;;;;4956979;28;20125;-79
2023/10/16 06:24:56;;;;;;;11.77;4.47;;;7.50;99.90;;;;;;4941172;28;20125;-80
2023/10/16 06:27:22;;;;;;;5.60;3.33;;;7.50;99.90;;;;;;4954080;28;20133;-80
2023/10/16 06:29:51;;;;;;;9.27;3.80;;;7.60;99.90;;;;;;4943414;28;20131;-81
2023/10/16 06:32:23;;;;;;;6.10;3.33;;;7.60;99.90;;;;;;4954833;28;20049;-80
2023/10/16 06:34:49;;;;;;;10.40;4.22;;;7.60;99.90;;;;;;4961503;28;20039;-82
2023/10/16 06:37:21;;;;;;;6.77;3.90;;;7.60;99.90;;;;;;4968391;28;20048;-82
2023/10/16 06:39:49;;;;;;;6.03;3.63;;;7.60;99.90;;;;;;4974007;28;20046;-80
2023/10/16 06:42:20;;;;;;;7.57;3.30;;;7.70;99.90;;;;;;4970112;28;20493;-80
2023/10/16 06:44:53;;;;;;;7.15;3.65;;;7.70;99.90;;;;;;4956897;28;20388;-80
2023/10/16 06:47:23;;;;;;;8.47;3.60;;;7.70;99.90;;;;;;4971896;28;20486;-80
2023/10/16 06:49:50;;;;;;;7.43;4.10;;;7.70;99.90;;;;;;4971218;28;20078;-80
2023/10/16 06:52:17;;;;;;;8.53;3.53;;;7.70;99.90;;;;;;4964214;28;20129;-80
2023/10/16 06:54:48;;;;;;;6.63;4.00;;;7.80;99.90;;;;;;4956344;28;20450;-80
2023/10/16 06:57:14;;;;;;;7.63;3.50;;;7.80;99.90;;;;;;4972722;28;20038;-80
2023/10/16 06:59:41;;;;;;;7.10;3.50;;;7.80;99.90;;;;;;4944983;28;20501;-80
2023/10/16 07:02:15;;;;;;;7.97;4.00;;;7.90;99.90;;;;;;4955683;28;20038;-80
2023/10/16 07:04:47;;;;;;;6.37;3.00;;;7.90;99.90;;;;;;4973458;28;20055;-79
2023/10/16 07:07:16;;;;;;;;;;;8.00;99.90;;;;;;4955752;28;20042;-80
2023/10/16 07:09:47;;;;;;;11.03;3.57;;;8.00;99.90;;;;;;4953624;28;19926;-79
2023/10/16 07:12:13;;;;;;;9.32;3.58;;;8.00;99.90;;;;;;4957629;28;20046;-80
2023/10/16 07:14:39;;;;;;;4.10;2.93;;;8.10;99.90;;;;;;4973627;28;20046;-80
2023/10/16 07:17:05;;;;;;;6.03;3.47;;;8.20;99.90;;;;;;4952940;28;20053;-80
2023/10/16 07:19:31;;;;;;;11.13;4.20;;;8.20;99.90;;;;;;4965822;28;20050;-80
2023/10/16 07:21:56;;;;;;;13.13;4.53;;;8.30;99.90;;;;;;4955707;28;20035;-80
2023/10/16 07:24:22;;;;;;;26.77;6.57;;;8.30;99.90;;;;;;4971109;28;20046;-80
2023/10/16 07:26:49;;;;;;;12.40;4.37;;;8.30;99.90;;;;;;4973171;28;20126;-80
2023/10/16 07:29:14;;;;;;;9.93;3.97;;;8.40;99.90;;;;;;4972651;28;20104;-80
2023/10/16 07:31:40;;;;;;;7.20;3.53;;;8.40;99.90;;;;;;4953200;28;20089;-83
2023/10/16 07:34:09;;;;;;;25.27;5.60;;;8.50;99.90;;;;;;4938268;28;20614;-80
2023/10/16 07:36:34;;;;;;;7.17;3.00;;;8.50;99.90;;;;;;4971015;28;20046;-80
2023/10/16 07:39:02;;;;;;;4.23;2.53;;;8.50;99.90;;;;;;4970552;28;20039;-80
2023/10/16 07:41:28;;;;;;;7.83;3.17;;;8.60;99.90;;;;;;4971544;28;20042;-81
2023/10/16 07:43:56;;;;;;;8.87;3.60;;;8.70;99.90;;;;;;4982736;28;20144;-81
2023/10/16 07:46:32;;;;;;;9.53;3.37;;;8.70;99.90;;;;;;4953561;28;20072;-80
2023/10/16 07:49:09;;;;;;;6.87;3.00;;;8.80;99.90;;;;;;4954806;28;20050;-80
2023/10/16 07:51:36;;;;;;;5.93;2.97;;;8.90;99.90;;;;;;4962494;28;20038;-81
2023/10/16 07:54:06;;;;;;;7.80;2.80;;;9.00;99.90;;;;;;4946639;28;20065;-81
2023/10/16 07:56:33;;;;;;;9.93;3.20;;;9.00;99.90;;;;;;4934027;28;20479;-80
2023/10/16 07:59:06;;;;;;;4.50;2.53;;;9.00;99.90;;;;;;4968808;28;20077;-80
2023/10/16 08:01:43;;;;;;;7.20;2.80;;;9.10;99.90;;;;;;4971261;28;20384;-80
2023/10/16 08:04:51;;;;;;;4.13;2.20;;;9.20;99.90;;;;;;4957484;28;20038;-80
2023/10/16 08:07:05;;;;;;;6.53;2.80;;;9.30;99.90;;;;;;4968107;28;20421;-80
2023/10/16 08:12:12;;;;;;;3.80;2.13;;;9.40;99.90;;;;;;4974588;28;20174;-80
2023/10/16 08:14:42;;;;;;;4.87;2.30;;;9.50;99.90;;;;;;4956215;28;20109;-80
2023/10/16 08:17:14;;;;;;;5.33;2.40;;;9.60;99.90;;;;;;4970826;28;20047;-80
2023/10/16 08:19:44;;;;;;;6.60;2.60;;;9.70;99.90;;;;;;4973443;28;20065;-80
2023/10/16 08:22:13;;;;;;;5.77;2.60;;;9.80;99.90;;;;;;4958085;28;20039;-81
2023/10/16 08:24:43;;;;;;;4.33;2.20;;;9.80;99.90;;;;;;4958569;28;20157;-81
2023/10/16 08:30:17;;;;;;;5.47;2.17;;;10.00;99.90;;;;;;4972777;28;20046;-81
2023/10/16 08:32:53;;;;;;;5.67;2.10;;;10.00;99.90;;;;;;4968485;28;20047;-81
2023/10/16 08:35:19;;;;;;;4.87;2.10;;;10.10;99.90;;;;;;4943740;28;20039;-81
2023/10/16 08:37:56;;;;;;;3.60;1.90;;;10.20;99.90;;;;;;4958204;28;20059;-80
2023/10/16 08:40:34;;;;;;;5.13;1.90;;;10.30;99.90;;;;;;4975630;28;20078;-81
2023/10/16 08:43:02;;;;;;;4.57;2.00;;;10.40;99.90;;;;;;4971634;28;20042;-80
2023/10/16 08:45:29;;;;;;;5.87;2.00;;;10.50;99.90;;;;;;4958566;28;20039;-81
2023/10/16 08:47:58;;;;;;;5.47;1.47;;;10.60;99.90;;;;;;4975591;28;20109;-80
2023/10/16 08:50:40;;;;;;;2.83;1.50;;;10.60;99.90;;;;;;4958948;28;20387;-81
2023/10/16 08:53:32;;;;;;;5.03;2.00;;;10.50;99.90;;;;;;4974523;28;20046;-80
2023/10/16 08:56:09;;;;;;;4.30;1.33;;;10.50;99.90;;;;;;4982411;28;20743;-85
2023/10/16 08:58:46;;;;;;;9.40;1.87;;;10.50;99.90;;;;;;4974419;28;20118;-81
2023/10/16 09:01:14;;;;;;;6.03;1.93;;;10.50;99.90;;;;;;4958195;28;20186;-81
2023/10/16 09:03:51;;;;;;;5.47;1.87;;;10.50;99.90;;;;;;4974844;28;20089;-81
2023/10/16 09:06:26;;;;;;;3.00;1.60;;;10.50;99.90;;;;;;4974105;28;20042;-81
2023/10/16 09:08:54;;;;;;;4.63;1.50;;;10.50;99.90;;;;;;4970051;28;20078;-81
2023/10/16 09:11:21;;;;;;;5.67;2.00;;;10.50;99.90;;;;;;4956766;28;20035;-81
2023/10/16 09:13:54;;;;;;;5.73;1.60;;;10.50;99.90;;;;;;4953747;28;20061;-82
2023/10/16 09:16:24;;;;;;;3.90;1.40;;;10.50;99.90;;;;;;4973011;28;20038;-82
2023/10/16 09:18:52;;;;;;;4.67;1.50;;;10.60;99.90;;;;;;4958348;28;20065;-82
2023/10/16 09:21:27;;;;;;;3.83;1.50;;;10.60;99.90;;;;;;4969082;28;20066;-82
2023/10/16 09:23:59;;;;;;;6.33;1.57;;;10.60;99.90;;;;;;4969468;28;20062;-81
2023/10/16 09:26:28;;;;;;;4.65;1.52;;;10.60;99.90;;;;;;4973155;28;20043;-81
2023/10/16 09:29:14;;;;;;;6.17;1.50;;;10.60;99.90;;;;;;4972299;28;20046;-81
2023/10/16 09:31:43;;;;;;;6.10;1.70;;;10.70;99.90;;;;;;4974380;28;20118;-81
2023/10/16 09:34:10;;;;;;;4.87;1.23;;;10.70;99.90;;;;;;4971830;28;20154;-81
2023/10/16 09:36:37;;;;;;;7.47;1.50;;;10.70;99.90;;;;;;4959042;28;20122;-82
2023/10/16 09:39:17;;;;;;;38.27;12.67;;;10.80;99.90;;;;;;4957378;28;20114;-81
2023/10/16 09:41:46;;;;;;;11.47;2.67;;;10.90;99.90;;;;;;4942915;28;20034;-81
2023/10/16 09:44:22;;;;;;;5.70;1.50;;;11.10;99.90;;;;;;4968963;28;20038;-80
2023/10/16 09:46:52;;;;;;;9.27;2.37;;;11.20;99.90;;;;;;4968701;28;20090;-81
2023/10/16 09:49:23;;;;;;;5.67;1.40;;;11.20;99.90;;;;;;4957126;28;20380;-81
2023/10/16 09:52:03;;;;;;;5.28;1.70;;;11.20;99.90;;;;;;4973248;28;20039;-81
2023/10/16 09:54:30;;;;;;;5.30;1.50;;;11.20;99.90;;;;;;4956057;28;20061;-82
2023/10/16 09:56:59;;;;;;;3.63;1.50;;;11.30;99.90;;;;;;4971921;28;20669;-83
2023/10/16 09:59:38;;;;;;;5.87;1.30;;;11.40;99.90;;;;;;4972796;28;20042;-82
2023/10/16 10:02:16;;;;;;;7.60;1.83;;;11.50;99.90;;;;;;4973237;28;20105;-83
2023/10/16 10:05:00;;;;;;;7.22;1.42;;;11.60;99.90;;;;;;4973621;28;20046;-83
2023/10/16 10:07:34;;;;;;;6.85;1.70;;;11.70;99.90;;;;;;4957404;28;20130;-82
2023/10/16 10:11:04;;;;;;;3.60;1.33;;;11.60;99.90;;;;;;4970698;28;20191;-84
2023/10/16 10:12:51;;;;;;;6.93;1.50;;;11.60;99.90;;;;;;4961849;28;20053;-81
2023/10/16 10:15:26;;;;;;;10.05;3.03;;;11.30;99.90;;;;;;4976365;28;20054;-82
2023/10/16 10:17:55;;;;;;;5.75;1.17;;;11.00;99.90;;;;;;4955380;28;20047;-83
2023/10/16 10:20:32;;;;;;;5.78;1.50;;;10.60;99.90;;;;;;4969321;28;20681;-82
2023/10/16 10:23:08;;;;;;;3.70;1.40;;;10.40;99.90;;;;;;4957405;28;20039;-83
2023/10/16 10:25:37;;;;;;;8.73;1.23;;;10.30;99.90;;;;;;4988272;28;20502;-82
2023/10/16 10:28:14;;;;;;;6.20;1.30;;;10.30;99.90;;;;;;4957388;28;20043;-82
2023/10/16 10:30:43;;;;;;;4.37;1.40;;;10.20;99.90;;;;;;4973593;28;20057;-82
2023/10/16 10:33:11;;;;;;;2.85;1.23;;;10.10;99.90;;;;;;4957368;28;20045;-83
2023/10/16 10:35:40;;;;;;;58.20;5.70;;;10.20;99.90;;;;;;4954252;28;20439;-82
2023/10/16 10:38:20;;;;;;;6.17;1.60;;;10.10;99.90;;;;;;4957941;28;20039;-83
2023/10/16 10:41:04;;;;;;;6.63;2.27;;;10.10;99.90;;;;;;4965786;28;20043;-81
2023/10/16 10:43:49;;;;;;;10.00;1.77;;;10.10;99.90;;;;;;4963624;28;20030;-81
2023/10/16 10:46:25;;;;;;;5.13;1.10;;;10.10;99.90;;;;;;4972047;28;20046;-81
2023/10/16 10:48:54;;;;;;;7.20;1.23;;;10.20;99.90;;;;;;4971138;28;20055;-82
2023/10/16 10:51:21;;;;;;;2.27;1.03;;;10.30;99.90;;;;;;4971671;28;20070;-81
2023/10/16 10:53:54;;;;;;;2.70;1.00;;;10.10;99.90;;;;;;4954992;28;20059;-81
2023/10/16 10:56:23;;;;;;;3.97;1.20;;;10.00;99.90;;;;;;4946660;28;20035;-81
2023/10/16 10:58:49;;;;;;;6.73;1.23;;;10.10;99.90;;;;;;4966625;28;20047;-81
2023/10/16 11:03:45;;;;;;;6.13;1.30;;;10.20;99.90;;;;;;4960508;28;20047;-82
2023/10/16 11:06:18;;;;;;;6.20;1.50;;;10.20;99.90;;;;;;4962947;28;20042;-81
2023/10/16 11:08:53;;;;;;;3.57;1.40;;;10.20;99.90;;;;;;4955930;28;20423;-81
2023/10/16 11:11:19;;;;;;;3.33;1.50;;;10.20;99.90;;;;;;4968938;28;20034;-81
2023/10/16 11:13:46;;;;;;;6.83;1.50;;;10.10;99.90;;;;;;4950244;28;20043;-82
2023/10/16 11:16:12;;;;;;;5.10;1.40;;;10.10;99.90;;;;;;4969835;28;20055;-82
2023/10/16 11:18:38;;;;;;;6.03;1.37;;;10.00;99.90;;;;;;4971121;28;20129;-82
2023/10/16 11:21:04;;;;;;;5.20;1.60;;;10.00;99.90;;;;;;4987649;28;20042;-81
2023/10/16 11:23:31;;;;;;;3.43;1.43;;;10.20;99.90;;;;;;4971925;28;20047;-81
2023/10/16 11:25:58;;;;;;;3.80;1.47;;;10.10;99.90;;;;;;4972062;28;20097;-81
2023/10/16 11:28:28;;;;;;;3.73;1.30;;;10.10;99.90;;;;;;4973299;28;20035;-81
2023/10/16 11:30:57;;;;;;;3.03;0.93;;;10.20;99.90;;;;;;4952972;29;20039;-81
2023/10/16 11:33:45;;;;;;;3.53;1.20;;;10.20;99.90;;;;;;4969946;28;20490;-81
2023/10/16 11:36:14;;;;;;;3.17;1.20;;;10.20;99.90;;;;;;4947821;28;20046;-81
2023/10/16 11:38:43;;;;;;;4.63;1.00;;;10.20;99.90;;;;;;4968247;28;20058;-81
2023/10/16 11:41:16;;;;;;;6.17;1.27;;;10.30;99.90;;;;;;4954879;28;20038;-81
2023/10/16 11:43:51;;;;;;;4.23;1.17;;;10.30;99.90;;;;;;4940251;28;20047;-81
2023/10/16 11:46:39;;;;;;;2.87;1.03;;;10.30;99.90;;;;;;4972059;28;20506;-81
2023/10/16 11:49:29;;;;;;;4.20;1.30;;;10.30;99.90;;;;;;4942392;28;20090;-81
2023/10/16 11:52:09;;;;;;;4.37;1.23;;;10.20;99.90;;;;;;4958725;28;20505;-81
2023/10/16 11:54:40;;;;;;;6.73;1.23;;;10.20;99.90;;;;;;4962490;28;20047;-81
2023/10/16 11:57:06;;;;;;;4.80;1.40;;;10.30;99.90;;;;;;4970574;28;20487;-80
2023/10/16 11:59:32;;;;;;;3.13;1.20;;;10.30;99.90;;;;;;4955191;28;20082;-80
2023/10/16 12:02:10;;;;;;;5.33;1.10;;;10.50;99.90;;;;;;4965740;28;20043;-81
2023/10/16 12:04:37;;;;;;;7.23;1.47;;;10.50;99.90;;;;;;4970913;28;20498;-80
2023/10/16 12:07:03;;;;;;;5.10;1.17;;;10.60;99.90;;;;;;4939295;28;20081;-80
2023/10/16 12:09:36;;;;;;;3.33;1.17;;;10.60;99.90;;;;;;4954700;28;20066;-80
2023/10/16 12:12:06;;;;;;;5.67;1.40;;;10.60;99.90;;;;;;4940144;28;20053;-80
2023/10/16 12:14:38;;;;;;;2.30;1.00;;;10.60;99.90;;;;;;4971262;28;20525;-81
2023/10/16 12:17:11;;;;;;;4.83;1.17;;;10.60;99.90;;;;;;4955456;28;20066;-81
2023/10/16 12:19:37;;;;;;;2.10;1.10;;;10.50;99.90;;;;;;4971338;28;20079;-81
2023/10/16 12:22:03;;;;;;;3.80;1.30;;;10.60;99.90;;;;;;4949202;29;20134;-81
2023/10/16 12:24:29;;;;;;;2.93;0.93;;;10.60;99.90;;;;;;4949510;28;20117;-81
2023/10/16 12:26:55;;;;;;;4.10;1.00;;;10.70;99.90;;;;;;4961242;28;20031;-81
2023/10/16 12:29:22;;;;;;;5.73;1.33;;;10.60;99.90;;;;;;4971093;28;20038;-81
2023/10/16 12:31:48;;;;;;;3.07;1.20;;;10.60;99.90;;;;;;4955071;28;20129;-80
2023/10/16 12:34:16;;;;;;;3.83;1.30;;;10.60;99.90;;;;;;4952544;28;20034;-81
2023/10/16 12:36:43;;;;;;;5.00;1.40;;;10.60;99.90;;;;;;4954627;28;20046;-81
2023/10/16 12:39:24;;;;;;;3.67;1.00;;;10.50;99.90;;;;;;4955163;28;20042;-80
2023/10/16 12:41:53;;;;;;;4.00;1.00;;;10.60;99.90;;;;;;4970446;28;20053;-81
2023/10/16 12:44:19;;;;;;;4.67;1.53;;;10.50;99.90;;;;;;4970658;28;20386;-81
2023/10/16 12:46:45;;;;;;;5.43;1.10;;;10.60;99.90;;;;;;4954705;28;20043;-80
2023/10/16 12:49:11;;;;;;;3.80;1.10;;;10.60;99.90;;;;;;4957511;28;20035;-81
2023/10/16 12:51:38;;;;;;;5.63;1.63;;;10.60;99.90;;;;;;4941401;28;20101;-81
2023/10/16 12:54:06;;;;;;;4.70;1.30;;;10.60;99.90;;;;;;4973852;28;20082;-81
2023/10/16 12:56:35;;;;;;;2.77;1.27;;;10.60;99.90;;;;;;4952217;28;20055;-80
2023/10/16 12:59:04;;;;;;;2.55;1.10;;;10.70;99.90;;;;;;4954279;29;20039;-81
2023/10/16 13:01:30;;;;;;;6.55;1.38;;;10.70;99.90;;;;;;4955546;28;20101;-80
2023/10/16 13:03:59;;;;;;;3.13;1.27;;;10.70;99.90;;;;;;4942322;28;20042;-81
2023/10/16 13:06:30;;;;;;;4.07;1.08;;;10.70;99.90;;;;;;4961320;28;20039;-81
2023/10/16 13:08:57;;;;;;;2.83;1.10;;;10.80;99.90;;;;;;4954893;29;20447;-80
2023/10/16 13:11:24;;;;;;;3.90;1.57;;;10.80;99.90;;;;;;4968413;28;20047;-81
2023/10/16 13:13:51;;;;;;;7.60;1.42;;;10.90;99.90;;;;;;4963671;28;20055;-81
2023/10/16 13:16:24;;;;;;;2.08;1.30;;;10.90;99.90;;;;;;4941000;28;20082;-80
2023/10/16 13:18:57;;;;;;;5.78;1.40;;;11.00;99.90;;;;;;4973191;28;20126;-80
2023/10/16 13:21:32;;;;;;;4.55;0.95;;;11.10;99.90;;;;;;4945637;28;20049;-80
2023/10/16 13:24:00;;;;;;;4.45;1.30;;;11.10;99.90;;;;;;4957300;28;20101;-80
2023/10/16 13:26:27;;;;;;;4.97;1.30;;;11.10;99.90;;;;;;4959119;28;20047;-80
2023/10/16 13:28:53;;;;;;;2.88;1.13;;;11.10;99.90;;;;;;4950046;28;20054;-81
2023/10/16 13:31:19;;;;;;;2.70;1.00;;;11.10;99.90;;;;;;4972441;28;20047;-80
2023/10/16 13:33:50;;;;;;;5.47;1.42;;;11.10;99.90;;;;;;4941797;28;20081;-80
2023/10/16 13:36:17;;;;;;;6.50;1.55;;;11.10;99.90;;;;;;4946007;28;20126;-81
2023/10/16 13:38:47;;;;;;;4.20;1.38;;;11.20;99.90;;;;;;4941765;28;20031;-80
2023/10/16 13:41:19;;;;;;;4.63;1.42;;;11.20;99.90;;;;;;4956669;28;20467;-81
2023/10/16 13:43:46;;;;;;;4.43;1.17;;;11.30;99.90;;;;;;4939095;29;20061;-81
2023/10/16 13:46:13;;;;;;;5.55;1.63;;;11.20;99.90;;;;;;4965235;28;20513;-81
2023/10/16 13:48:45;;;;;;;4.70;1.25;;;11.20;99.90;;;;;;4956900;28;20046;-80
2023/10/16 13:51:18;;;;;;;4.50;1.10;;;11.20;99.90;;;;;;4941721;28;20047;-80
2023/10/16 13:53:47;;;;;;;7.38;1.65;;;11.30;99.90;;;;;;4956941;28;20059;-81
2023/10/16 13:56:18;;;;;;;5.28;1.40;;;11.30;99.90;;;;;;4938537;28;20046;-80
2023/10/16 13:58:45;;;;;;;4.22;1.58;;;11.30;99.90;;;;;;4942050;28;20090;-80
2023/10/16 14:01:12;;;;;;;3.35;1.33;;;11.30;99.90;;;;;;4972515;28;20058;-80
2023/10/16 14:03:37;;;;;;;5.30;1.33;;;11.30;99.90;;;;;;4972650;28;20046;-80
2023/10/16 14:06:12;;;;;;;5.88;1.50;;;11.40;99.90;;;;;;4955052;28;20043;-80
2023/10/16 14:08:41;;;;;;;4.93;1.60;;;11.40;99.90;;;;;;4968457;28;20050;-81
2023/10/16 14:11:11;;;;;;;4.88;1.67;;;11.50;99.90;;;;;;4960636;28;20047;-81
2023/10/16 14:13:40;;;;;;;3.97;1.15;;;11.60;99.90;;;;;;4957649;28;20058;-81
2023/10/16 14:16:17;;;;;;;4.38;1.48;;;11.60;99.90;;;;;;4968905;28;20082;-81
2023/10/16 14:18:44;;;;;;;3.20;1.30;;;11.70;99.90;;;;;;4958452;28;20047;-81
2023/10/16 14:21:13;;;;;;;4.95;1.30;;;11.70;99.90;;;;;;4937077;28;20039;-81
2023/10/16 14:23:40;;;;;;;10.15;1.80;;;11.80;99.90;;;;;;4970990;28;20046;-80
2023/10/16 14:26:22;;;;;;;5.47;1.30;;;11.80;99.90;;;;;;4954185;28;20101;-81
2023/10/16 14:28:59;;;;;;;;;;;11.80;99.90;;;;;;4953832;28;20043;-81
2023/10/16 14:31:28;;;;;;;5.32;1.40;;;11.80;99.90;;;;;;4963836;28;20366;-81
2023/10/16 14:33:54;;;;;;;6.30;1.30;;;11.80;99.90;;;;;;4968971;28;20051;-81
2023/10/16 14:36:24;;;;;;;4.85;1.45;;;11.80;99.90;;;;;;4955743;28;20061;-81
2023/10/16 14:38:51;;;;;;;3.72;1.33;;;11.80;99.90;;;;;;4966195;28;20051;-81
2023/10/16 14:41:17;;;;;;;4.03;1.58;;;11.90;99.90;;;;;;4940268;28;20354;-81
2023/10/16 14:43:46;;;;;;;4.18;1.30;;;11.80;99.90;;;;;;4972235;28;20094;-81
2023/10/16 14:46:13;;;;;;;4.88;1.25;;;11.80;99.90;;;;;;4937342;29;20511;-81